sensor_id;sensor_type;location;lat;lon;timestamp;temperature;humidity
2477;DHT22;1249;51.270;6.756;2023-02-28T00:01:30;6.10;99.90
2477;DHT22;1249;51.270;6.756;2023-02-28T00:03:57;6.20;99.90
2477;DHT22;1249;51.270;6.756;2023-02-28T00:06:25;6.10;99.90
2477;DHT22;1249;51.270;6.756;2023-02-28T00:08:52;6.10;99.90
2477;DHT22;1249;51.270;6.756;2023-02-28T00:11:19;6.10;99.90
2477;DHT22;1249;51.270;6.756;2023-02-28T00:13:47;6.10;99.90
2477;DHT22;1249;51.270;6.756;2023-02-28T00:16:16;6.10;99.90
2477;DHT22;1249;51.270;6.756;2023-02-28T00:18:44;6.10;99.90
2477;DHT22;1249;51.270;6.756;2023-02-28T00:21:12;6.00;99.90
2477;DHT22;1249;51.270;6.756;2023-02-28T00:23:39;6.00;99.90
2477;DHT22;1249;51.270;6.756;2023-02-28T00:26:06;6.00;99.90
2477;DHT22;1249;51.270;6.756;2023-02-28T00:28:33;5.90;99.90
2477;DHT22;1249;51.270;6.756;2023-02-28T00:31:02;5.90;99.90
2477;DHT22;1249;51.270;6.756;2023-02-28T00:33:29;6.00;99.90
2477;DHT22;1249;51.270;6.756;2023-02-28T00:36:06;6.00;99.90
2477;DHT22;1249;51.270;6.756;2023-02-28T00:38:33;6.00;99.90
2477;DHT22;1249;51.270;6.756;2023-02-28T00:41:01;6.10;99.90
2477;DHT22;1249;51.270;6.756;2023-02-28T00:43:31;6.00;99.90
2477;DHT22;1249;51.270;6.756;2023-02-28T00:45:58;6.00;99.90
2477;DHT22;1249;51.270;6.756;2023-02-28T00:48:26;6.00;99.90
2477;DHT22;1249;51.270;6.756;2023-02-28T00:50:53;6.00;99.90
2477;DHT22;1249;51.270;6.756;2023-02-28T00:53:20;5.90;99.90
2477;DHT22;1249;51.270;6.756;2023-02-28T00:55:47;5.90;99.90
2477;DHT22;1249;51.270;6.756;2023-02-28T00:58:14;5.90;99.90
2477;DHT22;1249;51.270;6.756;2023-02-28T01:00:41;5.90;99.90
2477;DHT22;1249;51.270;6.756;2023-02-28T01:03:08;6.10;99.90
2477;DHT22;1249;51.270;6.756;2023-02-28T01:05:36;5.90;99.90
2477;DHT22;1249;51.270;6.756;2023-02-28T01:08:03;6.00;99.90
2477;DHT22;1249;51.270;6.756;2023-02-28T01:10:30;6.00;99.90
2477;DHT22;1249;51.270;6.756;2023-02-28T01:12:57;5.90;99.90
2477;DHT22;1249;51.270;6.756;2023-02-28T01:15:23;5.90;99.90
2477;DHT22;1249;51.270;6.756;2023-02-28T01:17:50;5.80;99.90
2477;DHT22;1249;51.270;6.756;2023-02-28T01:20:17;5.80;99.90
2477;DHT22;1249;51.270;6.756;2023-02-28T01:22:45;5.80;99.90
2477;DHT22;1249;51.270;6.756;2023-02-28T01:25:13;5.80;99.90
2477;DHT22;1249;51.270;6.756;2023-02-28T01:27:39;5.70;99.90
2477;DHT22;1249;51.270;6.756;2023-02-28T01:30:08;5.80;99.90
2477;DHT22;1249;51.270;6.756;2023-02-28T01:32:35;5.80;99.90
2477;DHT22;1249;51.270;6.756;2023-02-28T01:35:02;5.70;99.90
2477;DHT22;1249;51.270;6.756;2023-02-28T01:37:29;5.70;99.90
2477;DHT22;1249;51.270;6.756;2023-02-28T01:39:57;5.50;99.90
2477;DHT22;1249;51.270;6.756;2023-02-28T01:42:24;5.70;99.90
2477;DHT22;1249;51.270;6.756;2023-02-28T01:45:19;5.70;99.90
2477;DHT22;1249;51.270;6.756;2023-02-28T01:47:48;5.70;99.90
2477;DHT22;1249;51.270;6.756;2023-02-28T01:50:19;5.60;99.90
2477;DHT22;1249;51.270;6.756;2023-02-28T01:52:47;5.60;99.90
2477;DHT22;1249;51.270;6.756;2023-02-28T01:55:17;5.60;99.90
2477;DHT22;1249;51.270;6.756;2023-02-28T01:57:48;5.60;99.90
2477;DHT22;1249;51.270;6.756;2023-02-28T02:00:20;5.50;99.90
2477;DHT22;1249;51.270;6.756;2023-02-28T02:02:50;5.60;99.90
2477;DHT22;1249;51.270;6.756;2023-02-28T02:05:19;5.50;99.90
2477;DHT22;1249;51.270;6.756;2023-02-28T02:07:48;5.50;99.90
2477;DHT22;1249;51.270;6.756;2023-02-28T02:10:19;5.50;99.90
2477;DHT22;1249;51.270;6.756;2023-02-28T02:13:00;5.60;99.90
2477;DHT22;1249;51.270;6.756;2023-02-28T02:15:32;5.50;99.90
2477;DHT22;1249;51.270;6.756;2023-02-28T02:18:03;5.60;99.90
2477;DHT22;1249;51.270;6.756;2023-02-28T02:20:44;5.50;99.90
2477;DHT22;1249;51.270;6.756;2023-02-28T02:23:40;5.50;99.90
2477;DHT22;1249;51.270;6.756;2023-02-28T02:26:50;5.40;99.90
2477;DHT22;1249;51.270;6.756;2023-02-28T02:35:31;5.40;99.90
2477;DHT22;1249;51.270;6.756;2023-02-28T02:38:06;5.30;99.90
2477;DHT22;1249;51.270;6.756;2023-02-28T02:40:38;5.40;99.90
2477;DHT22;1249;51.270;6.756;2023-02-28T02:43:13;5.40;99.90
2477;DHT22;1249;51.270;6.756;2023-02-28T02:45:44;5.40;99.90
2477;DHT22;1249;51.270;6.756;2023-02-28T02:48:19;5.40;99.90
2477;DHT22;1249;51.270;6.756;2023-02-28T02:50:51;5.30;99.90
2477;DHT22;1249;51.270;6.756;2023-02-28T02:53:23;5.30;99.90
2477;DHT22;1249;51.270;6.756;2023-02-28T02:55:52;5.40;99.90
2477;DHT22;1249;51.270;6.756;2023-02-28T02:58:24;5.30;99.90
2477;DHT22;1249;51.270;6.756;2023-02-28T03:00:53;5.30;99.90
2477;DHT22;1249;51.270;6.756;2023-02-28T03:03:21;5.30;99.90
2477;DHT22;1249;51.270;6.756;2023-02-28T03:05:57;5.20;99.90
2477;DHT22;1249;51.270;6.756;2023-02-28T03:08:24;5.20;99.90
2477;DHT22;1249;51.270;6.756;2023-02-28T03:10:55;5.20;99.90
2477;DHT22;1249;51.270;6.756;2023-02-28T03:13:46;5.30;99.90
2477;DHT22;1249;51.270;6.756;2023-02-28T03:16:32;5.20;99.90
2477;DHT22;1249;51.270;6.756;2023-02-28T03:19:13;5.20;99.90
2477;DHT22;1249;51.270;6.756;2023-02-28T03:21:50;5.10;99.90
2477;DHT22;1249;51.270;6.756;2023-02-28T03:24:24;5.10;99.90
2477;DHT22;1249;51.270;6.756;2023-02-28T03:26:57;5.10;99.90
2477;DHT22;1249;51.270;6.756;2023-02-28T03:29:31;5.10;99.90
2477;DHT22;1249;51.270;6.756;2023-02-28T03:32:03;5.20;99.90
2477;DHT22;1249;51.270;6.756;2023-02-28T03:34:35;5.20;99.90
2477;DHT22;1249;51.270;6.756;2023-02-28T03:37:09;5.10;99.90
2477;DHT22;1249;51.270;6.756;2023-02-28T03:39:40;5.10;99.90
2477;DHT22;1249;51.270;6.756;2023-02-28T03:42:11;5.10;99.90
2477;DHT22;1249;51.270;6.756;2023-02-28T03:44:42;5.00;99.90
2477;DHT22;1249;51.270;6.756;2023-02-28T03:47:12;5.10;99.90
2477;DHT22;1249;51.270;6.756;2023-02-28T03:49:45;5.10;99.90
2477;DHT22;1249;51.270;6.756;2023-02-28T03:52:18;5.00;99.90
2477;DHT22;1249;51.270;6.756;2023-02-28T03:54:50;5.00;99.90
2477;DHT22;1249;51.270;6.756;2023-02-28T03:57:33;5.00;99.90
2477;DHT22;1249;51.270;6.756;2023-02-28T04:00:05;5.00;99.90
2477;DHT22;1249;51.270;6.756;2023-02-28T04:02:33;5.00;99.90
2477;DHT22;1249;51.270;6.756;2023-02-28T04:05:00;5.00;99.90
2477;DHT22;1249;51.270;6.756;2023-02-28T04:07:30;5.10;99.90
2477;DHT22;1249;51.270;6.756;2023-02-28T04:09:58;4.90;99.90
2477;DHT22;1249;51.270;6.756;2023-02-28T04:12:25;5.00;99.90
2477;DHT22;1249;51.270;6.756;2023-02-28T04:14:51;5.00;99.90
2477;DHT22;1249;51.270;6.756;2023-02-28T04:17:18;4.90;99.90
2477;DHT22;1249;51.270;6.756;2023-02-28T04:19:45;4.90;99.90
2477;DHT22;1249;51.270;6.756;2023-02-28T04:22:12;4.90;99.90
2477;DHT22;1249;51.270;6.756;2023-02-28T04:24:40;4.90;99.90
2477;DHT22;1249;51.270;6.756;2023-02-28T04:27:08;4.90;99.90
2477;DHT22;1249;51.270;6.756;2023-02-28T04:29:35;4.90;99.90
2477;DHT22;1249;51.270;6.756;2023-02-28T04:32:03;4.90;99.90
2477;DHT22;1249;51.270;6.756;2023-02-28T04:34:31;4.90;99.90
2477;DHT22;1249;51.270;6.756;2023-02-28T04:36:58;4.90;99.90
2477;DHT22;1249;51.270;6.756;2023-02-28T04:39:26;4.90;99.90
2477;DHT22;1249;51.270;6.756;2023-02-28T04:41:54;4.90;99.90
2477;DHT22;1249;51.270;6.756;2023-02-28T04:44:21;4.90;99.90
2477;DHT22;1249;51.270;6.756;2023-02-28T04:46:48;4.80;99.90
2477;DHT22;1249;51.270;6.756;2023-02-28T04:49:15;4.80;99.90
2477;DHT22;1249;51.270;6.756;2023-02-28T04:51:42;4.80;99.90
2477;DHT22;1249;51.270;6.756;2023-02-28T04:54:09;4.80;99.90
2477;DHT22;1249;51.270;6.756;2023-02-28T04:56:36;4.80;99.90
2477;DHT22;1249;51.270;6.756;2023-02-28T04:59:04;4.70;99.90
2477;DHT22;1249;51.270;6.756;2023-02-28T05:01:32;4.70;99.90
2477;DHT22;1249;51.270;6.756;2023-02-28T05:04:02;4.70;99.90
2477;DHT22;1249;51.270;6.756;2023-02-28T05:06:31;4.90;99.90
2477;DHT22;1249;51.270;6.756;2023-02-28T05:08:58;4.70;99.90
2477;DHT22;1249;51.270;6.756;2023-02-28T05:11:27;4.70;99.90
2477;DHT22;1249;51.270;6.756;2023-02-28T05:13:59;4.70;99.90
2477;DHT22;1249;51.270;6.756;2023-02-28T05:16:27;4.70;99.90
2477;DHT22;1249;51.270;6.756;2023-02-28T05:18:53;4.70;99.90
2477;DHT22;1249;51.270;6.756;2023-02-28T05:21:28;4.70;99.90
2477;DHT22;1249;51.270;6.756;2023-02-28T05:23:57;4.70;99.90
2477;DHT22;1249;51.270;6.756;2023-02-28T05:26:25;4.70;99.90
2477;DHT22;1249;51.270;6.756;2023-02-28T05:28:53;4.70;99.90
2477;DHT22;1249;51.270;6.756;2023-02-28T05:31:20;4.70;99.90
2477;DHT22;1249;51.270;6.756;2023-02-28T05:33:48;4.60;99.90
2477;DHT22;1249;51.270;6.756;2023-02-28T05:36:15;4.60;99.90
2477;DHT22;1249;51.270;6.756;2023-02-28T05:38:41;4.60;99.90
2477;DHT22;1249;51.270;6.756;2023-02-28T05:41:09;4.70;99.90
2477;DHT22;1249;51.270;6.756;2023-02-28T05:43:37;4.70;99.90
2477;DHT22;1249;51.270;6.756;2023-02-28T05:46:05;4.70;99.90
2477;DHT22;1249;51.270;6.756;2023-02-28T05:48:32;4.60;99.90
2477;DHT22;1249;51.270;6.756;2023-02-28T05:51:01;4.60;99.90
2477;DHT22;1249;51.270;6.756;2023-02-28T05:53:28;4.60;99.90
2477;DHT22;1249;51.270;6.756;2023-02-28T05:55:55;4.60;99.90
2477;DHT22;1249;51.270;6.756;2023-02-28T05:58:22;4.60;99.90
2477;DHT22;1249;51.270;6.756;2023-02-28T06:00:50;4.60;99.90
2477;DHT22;1249;51.270;6.756;2023-02-28T06:03:17;4.60;99.90
2477;DHT22;1249;51.270;6.756;2023-02-28T06:05:44;4.60;99.90
2477;DHT22;1249;51.270;6.756;2023-02-28T06:08:12;4.60;99.90
2477;DHT22;1249;51.270;6.756;2023-02-28T06:10:50;4.60;99.90
2477;DHT22;1249;51.270;6.756;2023-02-28T06:13:16;4.60;99.90
2477;DHT22;1249;51.270;6.756;2023-02-28T06:15:43;4.60;99.90
2477;DHT22;1249;51.270;6.756;2023-02-28T06:18:10;4.60;99.90
2477;DHT22;1249;51.270;6.756;2023-02-28T06:23:14;4.50;99.90
2477;DHT22;1249;51.270;6.756;2023-02-28T06:25:44;4.40;99.90
2477;DHT22;1249;51.270;6.756;2023-02-28T06:28:12;4.70;99.90
2477;DHT22;1249;51.270;6.756;2023-02-28T06:33:14;4.60;99.90
2477;DHT22;1249;51.270;6.756;2023-02-28T06:35:43;4.60;99.90
2477;DHT22;1249;51.270;6.756;2023-02-28T06:38:10;4.50;99.90
2477;DHT22;1249;51.270;6.756;2023-02-28T06:40:38;4.90;99.90
2477;DHT22;1249;51.270;6.756;2023-02-28T06:43:05;6.30;99.90
2477;DHT22;1249;51.270;6.756;2023-02-28T06:48:06;7.60;99.90
2477;DHT22;1249;51.270;6.756;2023-02-28T06:50:33;7.20;99.90
2477;DHT22;1249;51.270;6.756;2023-02-28T06:52:59;6.80;99.90
2477;DHT22;1249;51.270;6.756;2023-02-28T06:55:26;6.60;99.90
2477;DHT22;1249;51.270;6.756;2023-02-28T06:57:54;6.30;99.90
2477;DHT22;1249;51.270;6.756;2023-02-28T07:00:24;6.00;99.90
2477;DHT22;1249;51.270;6.756;2023-02-28T07:02:51;5.80;99.90
2477;DHT22;1249;51.270;6.756;2023-02-28T07:05:19;5.80;99.90
2477;DHT22;1249;51.270;6.756;2023-02-28T07:07:46;5.70;99.90
2477;DHT22;1249;51.270;6.756;2023-02-28T07:10:12;5.40;99.90
2477;DHT22;1249;51.270;6.756;2023-02-28T07:12:45;5.50;99.90
2477;DHT22;1249;51.270;6.756;2023-02-28T07:15:13;5.30;99.90
2477;DHT22;1249;51.270;6.756;2023-02-28T07:17:39;5.20;99.90
2477;DHT22;1249;51.270;6.756;2023-02-28T07:20:07;5.20;99.90
2477;DHT22;1249;51.270;6.756;2023-02-28T07:22:34;5.20;99.90
2477;DHT22;1249;51.270;6.756;2023-02-28T07:25:01;5.30;99.90
2477;DHT22;1249;51.270;6.756;2023-02-28T07:27:28;5.20;99.90
2477;DHT22;1249;51.270;6.756;2023-02-28T07:29:55;5.20;99.90
2477;DHT22;1249;51.270;6.756;2023-02-28T07:32:23;5.40;99.90
2477;DHT22;1249;51.270;6.756;2023-02-28T07:34:52;5.10;99.90
2477;DHT22;1249;51.270;6.756;2023-02-28T07:37:22;5.10;99.90
2477;DHT22;1249;51.270;6.756;2023-02-28T07:39:49;5.20;99.90
2477;DHT22;1249;51.270;6.756;2023-02-28T07:42:16;5.20;99.90
2477;DHT22;1249;51.270;6.756;2023-02-28T07:44:43;5.20;99.90
2477;DHT22;1249;51.270;6.756;2023-02-28T07:47:10;5.20;99.90
2477;DHT22;1249;51.270;6.756;2023-02-28T07:49:38;5.30;99.90
2477;DHT22;1249;51.270;6.756;2023-02-28T07:52:06;5.30;99.90
2477;DHT22;1249;51.270;6.756;2023-02-28T07:54:33;5.30;99.90
2477;DHT22;1249;51.270;6.756;2023-02-28T07:57:00;5.40;99.90
2477;DHT22;1249;51.270;6.756;2023-02-28T07:59:28;5.40;99.90
2477;DHT22;1249;51.270;6.756;2023-02-28T08:01:57;5.40;99.90
2477;DHT22;1249;51.270;6.756;2023-02-28T08:04:23;5.50;99.90
2477;DHT22;1249;51.270;6.756;2023-02-28T08:06:52;5.50;99.90
2477;DHT22;1249;51.270;6.756;2023-02-28T08:09:18;5.60;99.90
2477;DHT22;1249;51.270;6.756;2023-02-28T08:11:45;5.60;99.90
2477;DHT22;1249;51.270;6.756;2023-02-28T08:14:12;5.70;99.90
2477;DHT22;1249;51.270;6.756;2023-02-28T08:16:39;5.70;99.90
2477;DHT22;1249;51.270;6.756;2023-02-28T08:19:05;5.70;99.90
2477;DHT22;1249;51.270;6.756;2023-02-28T08:21:32;5.80;99.90
2477;DHT22;1249;51.270;6.756;2023-02-28T08:24:00;5.80;99.90
2477;DHT22;1249;51.270;6.756;2023-02-28T08:26:27;5.90;99.90
2477;DHT22;1249;51.270;6.756;2023-02-28T08:28:54;5.90;99.90
2477;DHT22;1249;51.270;6.756;2023-02-28T08:31:21;6.00;99.90
2477;DHT22;1249;51.270;6.756;2023-02-28T08:33:48;6.10;99.90
2477;DHT22;1249;51.270;6.756;2023-02-28T08:36:16;6.10;99.90
2477;DHT22;1249;51.270;6.756;2023-02-28T08:38:43;6.10;99.90
2477;DHT22;1249;51.270;6.756;2023-02-28T08:41:12;6.10;99.90
2477;DHT22;1249;51.270;6.756;2023-02-28T08:43:40;6.20;99.90
2477;DHT22;1249;51.270;6.756;2023-02-28T08:46:07;6.30;99.90
2477;DHT22;1249;51.270;6.756;2023-02-28T08:48:35;6.30;99.90
2477;DHT22;1249;51.270;6.756;2023-02-28T08:51:05;6.40;99.90
2477;DHT22;1249;51.270;6.756;2023-02-28T08:53:32;6.30;99.90
2477;DHT22;1249;51.270;6.756;2023-02-28T08:56:00;6.30;99.90
2477;DHT22;1249;51.270;6.756;2023-02-28T08:58:29;6.20;99.90
2477;DHT22;1249;51.270;6.756;2023-02-28T09:00:56;6.30;99.90
2477;DHT22;1249;51.270;6.756;2023-02-28T09:03:23;8.00;99.90
2477;DHT22;1249;51.270;6.756;2023-02-28T09:05:58;8.40;99.90
2477;DHT22;1249;51.270;6.756;2023-02-28T09:08:26;8.20;99.90
2477;DHT22;1249;51.270;6.756;2023-02-28T09:10:53;8.10;99.90
2477;DHT22;1249;51.270;6.756;2023-02-28T09:13:23;7.90;99.90
2477;DHT22;1249;51.270;6.756;2023-02-28T09:15:52;7.70;99.90
2477;DHT22;1249;51.270;6.756;2023-02-28T09:18:19;7.70;99.90
2477;DHT22;1249;51.270;6.756;2023-02-28T09:20:46;7.60;99.90
2477;DHT22;1249;51.270;6.756;2023-02-28T09:23:13;7.60;99.90
2477;DHT22;1249;51.270;6.756;2023-02-28T09:25:46;7.50;99.90
2477;DHT22;1249;51.270;6.756;2023-02-28T09:28:15;7.70;99.90
2477;DHT22;1249;51.270;6.756;2023-02-28T09:30:44;7.60;99.90
2477;DHT22;1249;51.270;6.756;2023-02-28T09:33:13;7.50;99.90
2477;DHT22;1249;51.270;6.756;2023-02-28T09:35:40;7.50;99.90
2477;DHT22;1249;51.270;6.756;2023-02-28T09:38:08;7.50;99.90
2477;DHT22;1249;51.270;6.756;2023-02-28T09:40:37;7.70;99.90
2477;DHT22;1249;51.270;6.756;2023-02-28T09:43:09;7.80;99.90
2477;DHT22;1249;51.270;6.756;2023-02-28T09:45:40;8.20;99.90
2477;DHT22;1249;51.270;6.756;2023-02-28T09:48:14;8.20;99.90
2477;DHT22;1249;51.270;6.756;2023-02-28T09:50:46;8.80;99.90
2477;DHT22;1249;51.270;6.756;2023-02-28T09:53:19;9.20;99.90
2477;DHT22;1249;51.270;6.756;2023-02-28T09:55:49;9.10;99.90
2477;DHT22;1249;51.270;6.756;2023-02-28T09:58:22;9.10;99.90
2477;DHT22;1249;51.270;6.756;2023-02-28T10:00:56;9.00;99.90
2477;DHT22;1249;51.270;6.756;2023-02-28T10:03:31;8.90;99.90
2477;DHT22;1249;51.270;6.756;2023-02-28T10:06:05;8.80;99.90
2477;DHT22;1249;51.270;6.756;2023-02-28T10:08:37;9.00;99.90
2477;DHT22;1249;51.270;6.756;2023-02-28T10:11:09;9.60;99.90
2477;DHT22;1249;51.270;6.756;2023-02-28T10:13:50;9.50;99.90
2477;DHT22;1249;51.270;6.756;2023-02-28T10:16:24;9.40;99.90
2477;DHT22;1249;51.270;6.756;2023-02-28T10:18:57;9.60;99.90
2477;DHT22;1249;51.270;6.756;2023-02-28T10:21:30;9.70;99.90
2477;DHT22;1249;51.270;6.756;2023-02-28T10:24:14;9.90;99.90
2477;DHT22;1249;51.270;6.756;2023-02-28T10:26:45;10.00;99.90
2477;DHT22;1249;51.270;6.756;2023-02-28T10:29:13;9.70;99.90
2477;DHT22;1249;51.270;6.756;2023-02-28T10:31:40;9.60;99.90
2477;DHT22;1249;51.270;6.756;2023-02-28T10:34:12;9.50;99.90
2477;DHT22;1249;51.270;6.756;2023-02-28T10:36:40;9.70;99.90
2477;DHT22;1249;51.270;6.756;2023-02-28T10:39:35;9.70;99.90
2477;DHT22;1249;51.270;6.756;2023-02-28T10:42:02;9.80;99.90
2477;DHT22;1249;51.270;6.756;2023-02-28T10:44:29;9.90;99.90
2477;DHT22;1249;51.270;6.756;2023-02-28T10:46:56;10.10;99.90
2477;DHT22;1249;51.270;6.756;2023-02-28T10:49:26;10.50;99.90
2477;DHT22;1249;51.270;6.756;2023-02-28T10:51:55;11.30;99.90
2477;DHT22;1249;51.270;6.756;2023-02-28T10:54:26;11.90;99.90
2477;DHT22;1249;51.270;6.756;2023-02-28T10:57:08;12.20;99.90
2477;DHT22;1249;51.270;6.756;2023-02-28T10:59:35;12.50;99.90
2477;DHT22;1249;51.270;6.756;2023-02-28T11:02:08;12.60;99.90
2477;DHT22;1249;51.270;6.756;2023-02-28T11:04:54;12.80;99.90
2477;DHT22;1249;51.270;6.756;2023-02-28T11:07:23;13.60;98.80
2477;DHT22;1249;51.270;6.756;2023-02-28T11:09:50;14.90;93.50
2477;DHT22;1249;51.270;6.756;2023-02-28T11:12:21;15.90;88.70
2477;DHT22;1249;51.270;6.756;2023-02-28T11:14:50;16.70;83.00
2477;DHT22;1249;51.270;6.756;2023-02-28T11:17:21;17.50;77.60
2477;DHT22;1249;51.270;6.756;2023-02-28T11:19:51;18.00;71.50
2477;DHT22;1249;51.270;6.756;2023-02-28T11:22:23;18.10;64.60
2477;DHT22;1249;51.270;6.756;2023-02-28T11:24:53;17.80;62.10
2477;DHT22;1249;51.270;6.756;2023-02-28T11:27:26;17.60;62.20
2477;DHT22;1249;51.270;6.756;2023-02-28T11:30:24;17.40;60.00
2477;DHT22;1249;51.270;6.756;2023-02-28T11:32:51;17.40;59.50
2477;DHT22;1249;51.270;6.756;2023-02-28T11:35:23;17.30;60.80
2477;DHT22;1249;51.270;6.756;2023-02-28T11:37:51;17.10;60.40
2477;DHT22;1249;51.270;6.756;2023-02-28T11:40:24;17.10;60.40
2477;DHT22;1249;51.270;6.756;2023-02-28T11:43:04;16.70;62.50
2477;DHT22;1249;51.270;6.756;2023-02-28T11:45:44;16.70;59.40
2477;DHT22;1249;51.270;6.756;2023-02-28T11:48:18;16.70;61.00
2477;DHT22;1249;51.270;6.756;2023-02-28T11:50:53;17.00;60.20
2477;DHT22;1249;51.270;6.756;2023-02-28T11:53:35;17.10;58.80
2477;DHT22;1249;51.270;6.756;2023-02-28T11:56:11;17.40;78.10
2477;DHT22;1249;51.270;6.756;2023-02-28T11:58:47;17.60;76.20
2477;DHT22;1249;51.270;6.756;2023-02-28T12:01:25;17.60;75.10
2477;DHT22;1249;51.270;6.756;2023-02-28T12:04:02;18.10;68.80
2477;DHT22;1249;51.270;6.756;2023-02-28T12:06:35;17.70;66.90
2477;DHT22;1249;51.270;6.756;2023-02-28T12:09:20;17.20;63.90
2477;DHT22;1249;51.270;6.756;2023-02-28T12:11:56;17.30;69.30
2477;DHT22;1249;51.270;6.756;2023-02-28T12:14:50;17.90;68.20
2477;DHT22;1249;51.270;6.756;2023-02-28T12:17:32;17.90;66.80
2477;DHT22;1249;51.270;6.756;2023-02-28T12:20:08;17.80;64.10
2477;DHT22;1249;51.270;6.756;2023-02-28T12:22:43;17.60;60.40
2477;DHT22;1249;51.270;6.756;2023-02-28T12:25:46;17.40;59.60
2477;DHT22;1249;51.270;6.756;2023-02-28T12:28:19;17.40;58.60
2477;DHT22;1249;51.270;6.756;2023-02-28T12:30:52;17.40;58.90
2477;DHT22;1249;51.270;6.756;2023-02-28T12:33:24;17.40;57.40
2477;DHT22;1249;51.270;6.756;2023-02-28T12:35:55;17.40;57.00
2477;DHT22;1249;51.270;6.756;2023-02-28T12:38:24;17.30;55.80
2477;DHT22;1249;51.270;6.756;2023-02-28T12:40:58;17.30;56.50
2477;DHT22;1249;51.270;6.756;2023-02-28T12:43:31;17.30;54.60
2477;DHT22;1249;51.270;6.756;2023-02-28T12:46:02;17.20;54.40
2477;DHT22;1249;51.270;6.756;2023-02-28T12:48:37;17.30;56.10
2477;DHT22;1249;51.270;6.756;2023-02-28T12:51:06;17.40;54.10
2477;DHT22;1249;51.270;6.756;2023-02-28T12:53:44;17.30;52.30
2477;DHT22;1249;51.270;6.756;2023-02-28T12:56:17;17.20;52.50
2477;DHT22;1249;51.270;6.756;2023-02-28T12:58:51;17.30;53.00
2477;DHT22;1249;51.270;6.756;2023-02-28T13:01:42;17.30;52.90
2477;DHT22;1249;51.270;6.756;2023-02-28T13:04:53;17.30;53.80
2477;DHT22;1249;51.270;6.756;2023-02-28T13:07:44;17.40;63.10
2477;DHT22;1249;51.270;6.756;2023-02-28T13:10:13;17.60;57.70
2477;DHT22;1249;51.270;6.756;2023-02-28T13:12:49;17.70;54.40
2477;DHT22;1249;51.270;6.756;2023-02-28T13:15:19;17.60;52.40
2477;DHT22;1249;51.270;6.756;2023-02-28T13:17:50;17.60;52.90
2477;DHT22;1249;51.270;6.756;2023-02-28T13:20:20;17.60;52.00
2477;DHT22;1249;51.270;6.756;2023-02-28T13:22:48;17.50;51.30
2477;DHT22;1249;51.270;6.756;2023-02-28T13:25:49;17.50;49.20
2477;DHT22;1249;51.270;6.756;2023-02-28T13:31:31;17.40;51.10
2477;DHT22;1249;51.270;6.756;2023-02-28T13:34:11;17.50;50.70
2477;DHT22;1249;51.270;6.756;2023-02-28T13:36:38;17.40;49.80
2477;DHT22;1249;51.270;6.756;2023-02-28T13:39:46;17.50;50.00
2477;DHT22;1249;51.270;6.756;2023-02-28T13:42:33;17.50;50.30
2477;DHT22;1249;51.270;6.756;2023-02-28T13:45:24;17.60;49.90
2477;DHT22;1249;51.270;6.756;2023-02-28T13:48:17;17.40;49.10
2477;DHT22;1249;51.270;6.756;2023-02-28T13:50:44;17.30;47.70
2477;DHT22;1249;51.270;6.756;2023-02-28T13:56:18;17.20;47.80
2477;DHT22;1249;51.270;6.756;2023-02-28T13:58:53;17.20;47.80
2477;DHT22;1249;51.270;6.756;2023-02-28T14:01:45;17.40;48.20
2477;DHT22;1249;51.270;6.756;2023-02-28T14:04:58;17.30;48.60
2477;DHT22;1249;51.270;6.756;2023-02-28T14:07:28;17.30;47.30
2477;DHT22;1249;51.270;6.756;2023-02-28T14:10:00;17.30;46.80
2477;DHT22;1249;51.270;6.756;2023-02-28T14:12:56;17.10;46.90
2477;DHT22;1249;51.270;6.756;2023-02-28T14:15:38;17.10;47.00
2477;DHT22;1249;51.270;6.756;2023-02-28T14:18:14;17.10;47.80
2477;DHT22;1249;51.270;6.756;2023-02-28T14:20:44;17.10;47.30
2477;DHT22;1249;51.270;6.756;2023-02-28T14:23:18;17.10;47.80
2477;DHT22;1249;51.270;6.756;2023-02-28T14:25:54;17.10;47.30
2477;DHT22;1249;51.270;6.756;2023-02-28T14:28:47;17.10;48.00
2477;DHT22;1249;51.270;6.756;2023-02-28T14:31:22;17.10;47.40
2477;DHT22;1249;51.270;6.756;2023-02-28T14:34:17;17.10;47.50
2477;DHT22;1249;51.270;6.756;2023-02-28T14:36:49;17.10;47.50
2477;DHT22;1249;51.270;6.756;2023-02-28T14:39:21;17.10;47.50
2477;DHT22;1249;51.270;6.756;2023-02-28T14:41:48;17.00;46.80
2477;DHT22;1249;51.270;6.756;2023-02-28T14:44:18;16.90;47.30
2477;DHT22;1249;51.270;6.756;2023-02-28T14:46:46;16.90;47.40
2477;DHT22;1249;51.270;6.756;2023-02-28T14:49:18;17.00;47.50
2477;DHT22;1249;51.270;6.756;2023-02-28T14:51:45;16.90;47.90
2477;DHT22;1249;51.270;6.756;2023-02-28T14:54:16;16.90;47.70
2477;DHT22;1249;51.270;6.756;2023-02-28T14:56:50;16.90;47.90
2477;DHT22;1249;51.270;6.756;2023-02-28T14:59:25;16.80;47.60
2477;DHT22;1249;51.270;6.756;2023-02-28T15:04:34;16.60;47.80
2477;DHT22;1249;51.270;6.756;2023-02-28T15:07:07;16.80;64.20
2477;DHT22;1249;51.270;6.756;2023-02-28T15:09:35;17.60;71.60
2477;DHT22;1249;51.270;6.756;2023-02-28T15:12:02;18.10;69.50
2477;DHT22;1249;51.270;6.756;2023-02-28T15:14:29;18.40;66.70
2477;DHT22;1249;51.270;6.756;2023-02-28T15:16:58;18.60;64.50
2477;DHT22;1249;51.270;6.756;2023-02-28T15:19:28;18.70;63.10
2477;DHT22;1249;51.270;6.756;2023-02-28T15:21:58;18.80;61.10
2477;DHT22;1249;51.270;6.756;2023-02-28T15:24:32;18.60;59.80
2477;DHT22;1249;51.270;6.756;2023-02-28T15:27:06;18.20;53.40
2477;DHT22;1249;51.270;6.756;2023-02-28T15:29:42;17.30;48.50
2477;DHT22;1249;51.270;6.756;2023-02-28T15:32:24;16.50;52.70
2477;DHT22;1249;51.270;6.756;2023-02-28T15:34:52;15.90;49.60
2477;DHT22;1249;51.270;6.756;2023-02-28T15:37:33;15.50;51.90
2477;DHT22;1249;51.270;6.756;2023-02-28T15:40:14;15.20;51.20
2477;DHT22;1249;51.270;6.756;2023-02-28T15:42:57;14.80;51.60
2477;DHT22;1249;51.270;6.756;2023-02-28T15:45:32;14.80;52.10
2477;DHT22;1249;51.270;6.756;2023-02-28T15:48:00;14.50;52.70
2477;DHT22;1249;51.270;6.756;2023-02-28T15:50:28;14.10;53.20
2477;DHT22;1249;51.270;6.756;2023-02-28T15:52:55;13.90;53.20
2477;DHT22;1249;51.270;6.756;2023-02-28T15:55:26;13.70;53.40
2477;DHT22;1249;51.270;6.756;2023-02-28T15:58:00;13.50;53.90
2477;DHT22;1249;51.270;6.756;2023-02-28T16:00:29;13.30;53.80
2477;DHT22;1249;51.270;6.756;2023-02-28T16:02:58;13.10;54.30
2477;DHT22;1249;51.270;6.756;2023-02-28T16:05:26;12.90;54.40
2477;DHT22;1249;51.270;6.756;2023-02-28T16:07:59;12.70;54.40
2477;DHT22;1249;51.270;6.756;2023-02-28T16:10:27;12.40;53.70
2477;DHT22;1249;51.270;6.756;2023-02-28T16:12:57;12.20;55.20
2477;DHT22;1249;51.270;6.756;2023-02-28T16:15:26;12.10;55.90
2477;DHT22;1249;51.270;6.756;2023-02-28T16:17:55;12.00;57.00
2477;DHT22;1249;51.270;6.756;2023-02-28T16:20:25;11.80;57.10
2477;DHT22;1249;51.270;6.756;2023-02-28T16:22:53;11.70;57.10
2477;DHT22;1249;51.270;6.756;2023-02-28T16:25:22;11.50;57.30
2477;DHT22;1249;51.270;6.756;2023-02-28T16:27:50;11.40;58.00
2477;DHT22;1249;51.270;6.756;2023-02-28T16:30:23;11.30;58.00
2477;DHT22;1249;51.270;6.756;2023-02-28T16:32:50;11.20;57.80
2477;DHT22;1249;51.270;6.756;2023-02-28T16:35:18;11.10;58.20
2477;DHT22;1249;51.270;6.756;2023-02-28T16:37:45;11.00;58.50
2477;DHT22;1249;51.270;6.756;2023-02-28T16:40:14;10.90;58.30
2477;DHT22;1249;51.270;6.756;2023-02-28T16:42:42;10.70;58.60
2477;DHT22;1249;51.270;6.756;2023-02-28T16:45:15;10.70;58.90
2477;DHT22;1249;51.270;6.756;2023-02-28T16:47:45;10.60;59.00
2477;DHT22;1249;51.270;6.756;2023-02-28T16:50:16;10.50;58.90
2477;DHT22;1249;51.270;6.756;2023-02-28T16:52:43;10.40;59.10
2477;DHT22;1249;51.270;6.756;2023-02-28T16:55:10;10.50;63.30
2477;DHT22;1249;51.270;6.756;2023-02-28T16:57:38;10.40;61.10
2477;DHT22;1249;51.270;6.756;2023-02-28T17:00:07;10.30;60.20
2477;DHT22;1249;51.270;6.756;2023-02-28T17:02:34;10.30;60.50